Time;durP1;ratioP1;P1;durP2;ratioP2;P2;SDS_P1;SDS_P2;PMS_P1;PMS_P2;Temp;Humidity;BMP_temperature;BMP_pressure;BME280_temperature;BME280_humidity;BME280_pressure;Samples;Min_cycle;Max_cycle;Signal;HPM_P1;HPM_P2
2021/01/14 00:00:33;;;;;;;14.60;10.80;;;4.90;99.90;;;;;;5031003;28;20838;-74
2021/01/14 00:02:59;;;;;;;15.77;9.40;;;5.00;99.90;;;;;;5031046;28;20680;-73
2021/01/14 00:05:25;;;;;;;14.63;9.77;;;4.90;99.90;;;;;;5031337;28;20513;-74
2021/01/14 00:07:53;;;;;;;17.67;10.20;;;4.90;99.90;;;;;;5031747;28;20406;-73
2021/01/14 00:10:19;;;;;;;16.73;11.10;;;4.90;99.90;;;;;;5029796;28;20950;-73
2021/01/14 00:12:45;;;;;;;16.03;9.77;;;4.90;99.90;;;;;;5031791;28;20406;-73
2021/01/14 00:15:14;;;;;;;15.40;8.80;;;4.90;99.90;;;;;;5014892;28;20474;-73
2021/01/14 00:17:40;;;;;;;14.30;9.13;;;4.90;99.90;;;;;;5018707;28;20434;-73
2021/01/14 00:20:08;;;;;;;17.50;9.20;;;4.90;99.90;;;;;;5031270;28;20460;-73
2021/01/14 00:22:34;;;;;;;13.23;7.83;;;4.90;99.90;;;;;;5029972;28;20203;-74
2021/01/14 00:25:00;;;;;;;19.90;9.27;;;4.90;99.90;;;;;;5030352;28;20446;-73
2021/01/14 00:27:26;;;;;;;19.03;7.67;;;4.90;99.90;;;;;;5033453;28;20182;-73
2021/01/14 00:29:51;;;;;;;14.27;8.50;;;4.80;99.90;;;;;;5035369;28;20410;-73
2021/01/14 00:32:17;;;;;;;14.13;7.60;;;4.90;99.90;;;;;;5035159;28;20535;-74
2021/01/14 00:34:43;;;;;;;15.03;7.50;;;4.90;99.90;;;;;;5035195;28;20203;-73
2021/01/14 00:39:54;;;;;;;11.77;7.50;;;4.90;99.90;;;;;;5035632;28;20302;-74
2021/01/14 00:42:20;;;;;;;18.37;8.40;;;4.90;99.90;;;;;;5034834;28;20504;-73
2021/01/14 00:44:45;;;;;;;8.23;7.07;;;4.90;99.90;;;;;;5035104;28;20839;-74
2021/01/14 00:47:11;;;;;;;11.57;6.47;;;4.90;99.90;;;;;;5034069;28;20187;-74
2021/01/14 00:49:37;;;;;;;14.23;6.20;;;4.90;99.90;;;;;;5033631;28;20250;-74
2021/01/14 00:52:03;;;;;;;8.30;5.80;;;4.90;99.90;;;;;;5034785;28;20175;-74
2021/01/14 00:54:29;;;;;;;12.17;7.57;;;4.90;99.90;;;;;;5034130;28;20265;-74
2021/01/14 00:56:54;;;;;;;18.43;6.60;;;4.90;99.90;;;;;;5033701;28;20422;-74
2021/01/14 00:59:20;;;;;;;14.23;5.27;;;4.80;99.90;;;;;;5034182;28;20172;-74
2021/01/14 01:01:46;;;;;;;9.50;6.00;;;4.80;99.90;;;;;;5034524;28;20198;-74
2021/01/14 01:04:11;;;;;;;12.77;7.73;;;4.80;99.90;;;;;;5033562;28;20207;-74
2021/01/14 01:07:33;;;;;;;7.43;5.13;;;4.80;99.90;;;;;;5034709;28;20176;-75
2021/01/14 01:09:59;;;;;;;8.17;4.97;;;4.80;99.90;;;;;;5028642;28;20167;-74
2021/01/14 01:12:24;;;;;;;12.47;4.97;;;4.70;99.90;;;;;;5034717;28;20484;-74
2021/01/14 01:14:50;;;;;;;14.70;5.57;;;4.60;99.90;;;;;;5034250;28;20199;-75
2021/01/14 01:17:15;;;;;;;12.00;5.57;;;4.60;99.90;;;;;;5035010;28;20254;-74
2021/01/14 01:19:41;;;;;;;7.23;4.23;;;4.60;99.90;;;;;;5034151;28;20187;-74
2021/01/14 01:22:07;;;;;;;14.10;5.50;;;4.60;99.90;;;;;;5032863;28;20286;-74
2021/01/14 01:24:32;;;;;;;9.90;3.67;;;4.60;99.90;;;;;;5033230;28;20191;-74
2021/01/14 01:26:58;;;;;;;10.10;4.90;;;4.70;99.90;;;;;;5034175;28;20176;-75
2021/01/14 01:29:23;;;;;;;5.50;3.07;;;4.60;99.90;;;;;;5032457;28;20175;-74
2021/01/14 01:31:49;;;;;;;9.07;4.00;;;4.50;99.90;;;;;;5034582;28;20640;-74
2021/01/14 01:34:15;;;;;;;13.10;3.40;;;4.50;99.90;;;;;;5033622;28;20233;-75
2021/01/14 01:36:41;;;;;;;12.53;3.47;;;4.50;99.90;;;;;;5033084;28;20270;-74
2021/01/14 01:39:07;;;;;;;9.33;2.90;;;4.60;99.90;;;;;;5032036;28;21113;-74
2021/01/14 01:41:33;;;;;;;7.30;3.23;;;4.60;99.90;;;;;;5030738;28;20959;-74
2021/01/14 01:43:58;;;;;;;10.70;3.20;;;4.50;99.90;;;;;;5033352;28;20278;-74
2021/01/14 01:46:29;;;;;;;5.50;3.37;;;4.50;99.90;;;;;;5032949;28;20183;-74
2021/01/14 01:48:57;;;;;;;7.93;3.10;;;4.60;99.90;;;;;;5033057;28;20255;-74
2021/01/14 01:51:29;;;;;;;9.87;3.27;;;4.60;99.90;;;;;;5031052;28;20564;-74
2021/01/14 01:53:55;;;;;;;9.97;4.60;;;4.50;99.90;;;;;;5033187;28;20579;-74
2021/01/14 01:56:21;;;;;;;11.53;2.80;;;4.50;99.90;;;;;;5031326;28;20537;-74
2021/01/14 01:58:48;;;;;;;4.23;2.57;;;4.50;99.90;;;;;;5033987;28;20413;-74
2021/01/14 02:01:14;;;;;;;6.77;2.00;;;4.50;99.90;;;;;;5033312;28;20163;-74
2021/01/14 02:03:40;;;;;;;5.57;2.30;;;4.40;99.90;;;;;;5032233;28;20465;-74
2021/01/14 02:06:05;;;;;;;6.63;2.87;;;4.40;99.90;;;;;;5033677;28;20432;-74
2021/01/14 02:08:36;;;;;;;3.63;2.03;;;4.30;99.90;;;;;;5032785;28;20175;-74
2021/01/14 02:11:34;;;;;;;5.93;2.17;;;4.30;99.90;;;;;;5030506;28;20203;-74
2021/01/14 02:14:23;;;;;;;6.43;1.73;;;4.30;99.90;;;;;;5032702;28;20429;-74
2021/01/14 02:16:50;;;;;;;8.63;1.90;;;4.30;99.90;;;;;;5032316;28;20468;-74
2021/01/14 02:19:26;;;;;;;4.43;1.90;;;4.40;99.90;;;;;;5031691;28;20513;-74
2021/01/14 02:22:01;;;;;;;4.27;2.03;;;4.40;99.90;;;;;;5032209;28;20591;-74
2021/01/14 02:24:36;;;;;;;8.67;2.40;;;4.50;99.90;;;;;;5033315;28;20429;-74
2021/01/14 02:27:03;;;;;;;7.13;1.60;;;4.50;99.90;;;;;;5031749;28;20434;-74
2021/01/14 02:29:29;;;;;;;7.40;2.37;;;4.50;99.90;;;;;;5032117;28;20824;-74
2021/01/14 02:31:54;;;;;;;9.73;3.33;;;4.60;99.90;;;;;;5032314;28;20444;-74
2021/01/14 02:34:20;;;;;;;14.33;2.60;;;4.60;99.90;;;;;;5029182;28;20468;-74
2021/01/14 02:36:46;;;;;;;6.73;2.40;;;4.60;99.90;;;;;;5031573;28;20179;-75
2021/01/14 02:39:11;;;;;;;6.97;2.87;;;4.60;99.90;;;;;;5032267;28;20233;-74
2021/01/14 02:41:37;;;;;;;6.10;2.70;;;4.70;99.90;;;;;;5030779;28;20203;-74
2021/01/14 02:44:03;;;;;;;9.47;2.37;;;4.70;99.90;;;;;;5032489;28;20269;-75
2021/01/14 02:46:29;;;;;;;4.80;2.40;;;4.60;99.90;;;;;;5031197;28;20659;-75
2021/01/14 02:49:01;;;;;;;4.80;2.77;;;4.60;99.90;;;;;;5028400;28;20270;-74
2021/01/14 02:51:31;;;;;;;7.67;2.13;;;4.60;99.90;;;;;;5012626;28;20469;-74
2021/01/14 02:53:58;;;;;;;6.10;1.63;;;4.60;99.90;;;;;;5013031;28;20824;-73
2021/01/14 02:56:26;;;;;;;8.20;2.03;;;4.50;99.90;;;;;;5023426;28;20436;-73
2021/01/14 02:58:55;;;;;;;4.90;1.83;;;4.50;99.90;;;;;;5032139;28;20410;-75
2021/01/14 03:01:21;;;;;;;3.47;2.13;;;4.50;99.90;;;;;;5031542;28;20444;-74
2021/01/14 03:03:46;;;;;;;9.60;2.17;;;4.50;99.90;;;;;;5032662;28;20426;-73
2021/01/14 03:06:12;;;;;;;9.60;2.20;;;4.50;99.90;;;;;;5032579;28;20178;-74
2021/01/14 03:08:37;;;;;;;2.70;1.47;;;4.40;99.90;;;;;;5032556;28;20164;-74
2021/01/14 03:11:03;;;;;;;7.20;1.80;;;4.40;99.90;;;;;;5032180;28;20171;-74
2021/01/14 03:13:29;;;;;;;7.33;1.40;;;4.40;99.90;;;;;;5032466;28;20569;-74
2021/01/14 03:15:55;;;;;;;8.80;2.40;;;4.40;99.90;;;;;;5029559;28;20310;-74
2021/01/14 03:18:20;;;;;;;12.67;2.00;;;4.40;99.90;;;;;;5032306;28;20906;-74
2021/01/14 03:20:47;;;;;;;6.73;1.67;;;4.40;99.90;;;;;;5031700;28;20186;-74
2021/01/14 03:23:13;;;;;;;3.17;1.13;;;4.30;99.90;;;;;;5032331;28;20199;-74
2021/01/14 03:25:38;;;;;;;5.30;1.93;;;4.30;99.90;;;;;;5031387;28;20430;-75
2021/01/14 03:28:04;;;;;;;5.73;1.60;;;4.30;99.90;;;;;;5029093;28;20700;-73
2021/01/14 03:30:30;;;;;;;3.93;1.60;;;4.20;99.90;;;;;;5031548;28;20266;-75
2021/01/14 03:32:56;;;;;;;5.40;2.10;;;4.20;99.90;;;;;;5031806;28;20182;-75
2021/01/14 03:35:22;;;;;;;10.80;2.00;;;4.20;99.90;;;;;;5056986;28;20607;-75
2021/01/14 03:37:48;;;;;;;3.43;2.30;;;4.20;99.90;;;;;;5031062;28;20422;-73
2021/01/14 03:40:14;;;;;;;5.23;1.63;;;4.20;99.90;;;;;;5032326;28;20175;-74
2021/01/14 03:42:39;;;;;;;2.20;1.43;;;4.20;99.90;;;;;;5031577;28;20543;-74
2021/01/14 03:45:07;;;;;;;10.50;2.90;;;4.20;99.90;;;;;;5032235;28;20438;-73
2021/01/14 03:47:33;;;;;;;5.10;1.70;;;4.20;99.90;;;;;;5030658;28;20215;-73
2021/01/14 03:49:59;;;;;;;4.03;1.50;;;4.20;99.90;;;;;;5030995;28;20445;-73
2021/01/14 03:52:25;;;;;;;2.93;1.60;;;4.30;99.90;;;;;;5031667;28;20421;-73
2021/01/14 03:54:50;;;;;;;3.97;2.20;;;4.20;99.90;;;;;;5031718;28;20195;-74
2021/01/14 03:57:16;;;;;;;2.30;1.00;;;4.20;99.90;;;;;;5031907;28;20182;-74
2021/01/14 03:59:44;;;;;;;13.90;3.37;;;4.20;99.90;;;;;;5031778;28;20179;-74
2021/01/14 04:02:11;;;;;;;4.33;2.00;;;4.20;99.90;;;;;;5034691;28;20201;-73
2021/01/14 04:04:41;;;;;;;4.97;1.73;;;4.20;99.90;;;;;;5035877;28;20832;-73
2021/01/14 04:07:11;;;;;;;4.27;3.03;;;4.20;99.90;;;;;;5035758;28;20410;-73
2021/01/14 04:09:37;;;;;;;6.67;1.40;;;4.20;99.90;;;;;;5035777;28;20410;-73
2021/01/14 04:12:03;;;;;;;4.17;1.73;;;4.20;99.90;;;;;;5035558;28;20414;-73
2021/01/14 04:14:31;;;;;;;7.47;2.37;;;4.20;99.90;;;;;;5036188;28;20783;-75
2021/01/14 04:16:56;;;;;;;9.27;3.30;;;4.20;99.90;;;;;;5034570;28;20430;-74
2021/01/14 04:19:22;;;;;;;5.13;1.90;;;4.20;99.90;;;;;;5036075;28;20420;-74
2021/01/14 04:21:48;;;;;;;6.03;1.70;;;4.20;99.90;;;;;;5034136;28;20293;-74
2021/01/14 04:24:14;;;;;;;4.40;1.40;;;4.20;99.90;;;;;;5035430;28;20222;-74
2021/01/14 04:26:39;;;;;;;4.93;1.40;;;4.20;99.90;;;;;;5035445;28;20632;-73
2021/01/14 04:29:06;;;;;;;5.40;2.40;;;4.20;99.90;;;;;;5035502;28;20194;-74
2021/01/14 04:31:32;;;;;;;3.90;1.67;;;4.30;99.90;;;;;;5035172;28;20198;-73
2021/01/14 04:33:58;;;;;;;4.67;2.60;;;4.30;99.90;;;;;;5035164;28;20488;-73
2021/01/14 04:36:24;;;;;;;10.07;2.30;;;4.30;99.90;;;;;;5034072;28;20414;-73
2021/01/14 04:38:50;;;;;;;18.90;2.23;;;4.30;99.90;;;;;;5033900;28;20493;-73
2021/01/14 04:41:18;;;;;;;3.77;1.40;;;4.30;99.90;;;;;;5035177;28;20413;-74
2021/01/14 04:43:43;;;;;;;3.90;1.17;;;4.30;99.90;;;;;;5035742;28;20191;-74
2021/01/14 04:46:11;;;;;;;5.57;1.43;;;4.30;99.90;;;;;;5035683;28;20764;-74
2021/01/14 04:48:47;;;;;;;6.30;2.27;;;4.30;99.90;;;;;;5035624;28;20218;-75
2021/01/14 04:51:18;;;;;;;2.43;1.40;;;4.30;99.90;;;;;;5030815;28;20560;-74
2021/01/14 04:53:48;;;;;;;5.83;1.30;;;4.30;99.90;;;;;;5026150;28;20528;-75
2021/01/14 04:56:15;;;;;;;5.67;1.90;;;4.30;99.90;;;;;;5031920;28;20418;-74
2021/01/14 04:58:45;;;;;;;2.80;1.40;;;4.30;99.90;;;;;;5034709;28;20438;-75
2021/01/14 05:01:19;;;;;;;4.67;1.67;;;4.30;99.90;;;;;;5034205;28;20438;-74
2021/01/14 05:03:49;;;;;;;4.67;1.87;;;4.20;99.90;;;;;;5034931;28;20495;-74
2021/01/14 05:06:17;;;;;;;6.13;1.97;;;4.20;99.90;;;;;;5034916;28;20836;-74
2021/01/14 05:08:48;;;;;;;7.93;1.63;;;4.10;99.90;;;;;;5033276;28;20553;-74
2021/01/14 05:11:15;;;;;;;3.57;1.40;;;4.10;99.90;;;;;;5033506;28;20406;-74
2021/01/14 05:13:41;;;;;;;4.20;1.30;;;4.10;99.90;;;;;;5026008;28;20454;-74
2021/01/14 05:16:07;;;;;;;3.07;1.50;;;4.00;99.90;;;;;;5035137;28;20405;-74
2021/01/14 05:18:34;;;;;;;3.27;1.67;;;4.10;99.90;;;;;;5034413;28;20832;-74
2021/01/14 05:21:00;;;;;;;5.77;1.40;;;4.10;99.90;;;;;;5034865;28;20394;-74
2021/01/14 05:23:28;;;;;;;8.17;2.13;;;4.10;99.90;;;;;;5033763;28;20469;-74
2021/01/14 05:25:54;;;;;;;199.70;109.50;;;4.00;99.90;;;;;;5034107;28;20514;-74
2021/01/14 05:28:21;;;;;;;7.43;3.03;;;4.10;99.90;;;;;;5033555;28;20509;-75
2021/01/14 05:30:48;;;;;;;3.97;1.77;;;4.10;99.90;;;;;;5034296;28;20526;-74
2021/01/14 05:33:16;;;;;;;7.60;2.30;;;3.90;99.90;;;;;;5033445;28;20898;-73
2021/01/14 05:35:50;;;;;;;9.27;1.77;;;3.90;99.90;;;;;;5034394;28;20409;-73
2021/01/14 05:38:26;;;;;;;13.07;2.30;;;3.90;99.90;;;;;;5031466;28;20434;-73
2021/01/14 05:41:10;;;;;;;4.40;1.73;;;3.90;99.90;;;;;;5032738;28;20439;-74
2021/01/14 05:43:58;;;;;;;5.30;2.13;;;3.90;99.90;;;;;;5033967;28;20450;-74
2021/01/14 05:46:32;;;;;;;3.23;1.40;;;3.90;99.90;;;;;;5033986;28;20438;-74
2021/01/14 05:48:59;;;;;;;5.37;2.37;;;3.90;99.90;;;;;;5032605;28;20437;-74
2021/01/14 05:51:27;;;;;;;6.03;2.10;;;3.90;99.90;;;;;;5033145;28;20430;-74
2021/01/14 05:54:12;;;;;;;5.73;2.20;;;3.90;99.90;;;;;;5033133;28;20587;-75
2021/01/14 05:56:42;;;;;;;4.47;1.60;;;3.90;99.90;;;;;;5034236;28;20406;-74
2021/01/14 05:59:08;;;;;;;5.77;1.70;;;4.00;99.90;;;;;;5033008;28;20483;-73
2021/01/14 06:01:35;;;;;;;8.33;2.20;;;4.00;99.90;;;;;;5032969;28;20458;-73
2021/01/14 06:04:22;;;;;;;5.43;2.43;;;3.90;99.90;;;;;;5020614;28;20199;-73
2021/01/14 06:06:50;;;;;;;8.23;2.40;;;3.90;99.90;;;;;;5012753;28;20414;-74
2021/01/14 06:09:18;;;;;;;5.47;1.80;;;3.90;99.90;;;;;;5029524;28;20520;-74
2021/01/14 06:11:44;;;;;;;3.80;1.60;;;3.90;99.90;;;;;;5032804;28;20441;-74
2021/01/14 06:14:25;;;;;;;3.03;1.47;;;3.90;99.90;;;;;;5033443;28;20457;-74
2021/01/14 06:16:52;;;;;;;9.80;1.90;;;4.00;99.90;;;;;;5033490;28;20410;-74
2021/01/14 06:19:18;;;;;;;4.20;1.60;;;4.00;99.90;;;;;;5031857;28;20483;-74
2021/01/14 06:21:48;;;;;;;9.93;2.00;;;4.00;99.90;;;;;;5033392;28;20544;-74
2021/01/14 06:24:30;;;;;;;5.13;1.80;;;3.90;99.90;;;;;;5029497;28;20211;-73
2021/01/14 06:27:10;;;;;;;5.73;2.10;;;4.00;99.90;;;;;;5032012;28;20406;-74
2021/01/14 06:29:37;;;;;;;4.93;2.30;;;3.90;99.90;;;;;;5032524;28;20432;-74
2021/01/14 06:32:06;;;;;;;9.93;2.80;;;3.90;99.90;;;;;;5033028;28;20603;-74
2021/01/14 06:34:33;;;;;;;15.57;3.13;;;3.90;99.90;;;;;;5032405;28;20532;-74
2021/01/14 06:37:06;;;;;;;13.27;2.17;;;3.90;99.90;;;;;;5033111;28;20417;-74
2021/01/14 06:39:38;;;;;;;6.70;2.57;;;3.90;99.90;;;;;;5031300;28;20446;-74
2021/01/14 06:42:18;;;;;;;6.73;2.37;;;3.90;99.90;;;;;;5031504;28;20950;-74
2021/01/14 06:44:51;;;;;;;5.13;1.90;;;3.90;99.90;;;;;;5032968;28;20426;-73
2021/01/14 06:47:35;;;;;;;9.80;3.00;;;3.90;99.90;;;;;;5032187;28;20450;-73
2021/01/14 06:50:16;;;;;;;7.10;2.23;;;3.80;99.90;;;;;;5032888;28;20404;-73
2021/01/14 06:52:43;;;;;;;8.03;2.27;;;3.80;99.90;;;;;;5017963;28;20435;-74
2021/01/14 06:55:23;;;;;;;9.27;3.30;;;3.80;99.90;;;;;;5013334;28;20426;-74
2021/01/14 06:58:01;;;;;;;6.17;3.00;;;3.80;99.90;;;;;;5024173;28;20971;-73
2021/01/14 07:00:29;;;;;;;6.63;2.87;;;3.80;99.90;;;;;;5032447;28;20401;-74
2021/01/14 07:03:34;;;;;;;9.77;2.93;;;3.80;99.90;;;;;;5031271;28;20984;-74
2021/01/14 07:06:05;;;;;;;9.23;2.90;;;3.80;99.90;;;;;;5015738;28;20765;-74
2021/01/14 07:08:41;;;;;;;11.30;3.80;;;3.70;99.90;;;;;;5031256;28;20430;-74
2021/01/14 07:11:07;;;;;;;7.00;3.30;;;3.70;99.90;;;;;;5032293;28;20402;-74
2021/01/14 07:13:36;;;;;;;11.00;4.27;;;3.70;99.90;;;;;;5031805;28;20453;-74
2021/01/14 07:16:03;;;;;;;10.80;3.50;;;3.70;99.90;;;;;;5032446;28;20175;-73
2021/01/14 07:18:35;;;;;;;9.73;3.10;;;3.60;99.90;;;;;;5031632;28;20426;-74
2021/01/14 07:21:22;;;;;;;13.10;3.87;;;3.60;99.90;;;;;;5031467;28;20434;-72
2021/01/14 07:24:08;;;;;;;7.00;2.67;;;3.60;99.90;;;;;;5026173;28;20470;-73
2021/01/14 07:26:38;;;;;;;11.13;4.17;;;3.70;99.90;;;;;;5030504;28;21005;-74
2021/01/14 07:29:04;;;;;;;9.63;4.13;;;3.70;99.90;;;;;;5030911;28;20438;-73
2021/01/14 07:31:31;;;;;;;11.10;5.20;;;3.70;99.90;;;;;;5032073;28;20459;-74
2021/01/14 07:33:57;;;;;;;10.10;5.17;;;3.60;99.90;;;;;;5030264;28;20466;-73
2021/01/14 07:36:24;;;;;;;8.77;4.77;;;3.60;99.90;;;;;;5032043;28;20402;-75
2021/01/14 07:38:55;;;;;;;10.80;4.07;;;3.60;99.90;;;;;;5029250;28;20469;-74
2021/01/14 07:41:21;;;;;;;10.27;4.30;;;3.70;99.90;;;;;;5022481;28;20439;-74
2021/01/14 07:43:48;;;;;;;16.03;4.00;;;3.60;99.90;;;;;;5031942;28;20525;-74
2021/01/14 07:46:15;;;;;;;10.57;3.13;;;3.70;99.90;;;;;;5030708;28;20433;-73
2021/01/14 07:48:40;;;;;;;5.73;4.20;;;3.70;99.90;;;;;;5021136;28;20438;-74
2021/01/14 07:51:06;;;;;;;19.13;3.30;;;3.70;99.90;;;;;;5024258;28;20514;-74
2021/01/14 07:53:32;;;;;;;10.67;2.70;;;3.70;99.90;;;;;;5031285;28;20430;-74
2021/01/14 07:56:22;;;;;;;11.30;3.63;;;3.70;99.90;;;;;;5029472;28;20188;-74
2021/01/14 07:58:51;;;;;;;4.60;2.60;;;3.70;99.90;;;;;;5031999;28;20170;-73
2021/01/14 08:01:17;;;;;;;3.50;2.10;;;3.80;99.90;;;;;;5031631;28;20549;-74
2021/01/14 08:03:44;;;;;;;5.90;1.93;;;3.80;99.90;;;;;;5030771;28;20535;-73
2021/01/14 08:06:26;;;;;;;5.10;2.10;;;3.80;99.90;;;;;;5030665;28;20687;-74
2021/01/14 08:09:10;;;;;;;9.07;2.67;;;3.80;99.90;;;;;;5026028;28;20843;-73
2021/01/14 08:11:37;;;;;;;6.23;2.30;;;3.80;99.90;;;;;;5031626;28;20400;-74
2021/01/14 08:14:17;;;;;;;11.33;3.17;;;3.80;99.90;;;;;;5031246;28;20453;-74
2021/01/14 08:16:48;;;;;;;7.40;2.90;;;3.90;99.90;;;;;;5026793;28;20463;-74
2021/01/14 08:19:18;;;;;;;8.70;3.87;;;3.90;99.90;;;;;;5031229;28;20433;-74
2021/01/14 08:21:48;;;;;;;11.70;4.73;;;3.90;99.90;;;;;;5031257;28;21012;-74
2021/01/14 08:24:47;;;;;;;5.80;2.57;;;3.90;99.90;;;;;;5030236;28;20962;-74
2021/01/14 08:27:30;;;;;;;6.80;2.73;;;3.90;99.90;;;;;;5030871;28;20406;-74
2021/01/14 08:30:01;;;;;;;10.70;2.93;;;4.00;99.90;;;;;;5025970;28;20499;-74
2021/01/14 08:32:36;;;;;;;7.17;2.17;;;4.00;99.90;;;;;;5030833;28;21511;-74
2021/01/14 08:35:09;;;;;;;16.20;2.40;;;4.10;99.90;;;;;;5029346;28;20548;-73
2021/01/14 08:37:36;;;;;;;10.90;3.00;;;4.10;99.90;;;;;;5026738;28;20465;-73
2021/01/14 08:40:09;;;;;;;7.13;2.57;;;4.10;99.90;;;;;;5031128;28;20518;-74
2021/01/14 08:42:42;;;;;;;12.40;2.47;;;4.20;99.90;;;;;;5034056;28;21133;-74
2021/01/14 08:45:47;;;;;;;9.80;2.80;;;4.20;99.90;;;;;;5030559;28;20965;-73
2021/01/14 08:48:23;;;;;;;5.43;2.20;;;4.30;99.90;;;;;;5032148;28;20429;-74
2021/01/14 08:50:54;;;;;;;4.47;1.70;;;4.30;99.90;;;;;;5034560;28;20554;-74
2021/01/14 08:53:19;;;;;;;6.97;2.83;;;4.30;99.90;;;;;;5034758;28;20539;-73
2021/01/14 08:56:04;;;;;;;11.90;3.10;;;4.40;99.90;;;;;;5033424;28;20461;-73
2021/01/14 08:58:37;;;;;;;10.00;2.47;;;4.30;99.90;;;;;;5034663;28;20233;-74
2021/01/14 09:01:07;;;;;;;13.90;3.00;;;4.40;99.90;;;;;;5019168;28;20430;-72
2021/01/14 09:03:34;;;;;;;11.00;2.70;;;4.50;99.90;;;;;;5033517;28;20496;-72
2021/01/14 09:06:00;;;;;;;5.87;2.83;;;4.70;99.90;;;;;;5027249;28;20418;-72
2021/01/14 09:08:26;;;;;;;3.50;1.90;;;5.00;99.90;;;;;;5034459;28;20437;-72
2021/01/14 09:10:57;;;;;;;8.20;3.07;;;5.40;99.90;;;;;;5026253;28;20168;-72
2021/01/14 09:13:26;;;;;;;4.50;2.40;;;5.80;99.90;;;;;;5028740;28;20712;-72
2021/01/14 09:15:56;;;;;;;5.97;2.40;;;6.10;99.90;;;;;;5027261;28;20502;-73
2021/01/14 09:18:33;;;;;;;5.93;3.10;;;6.40;99.90;;;;;;5028581;28;20415;-72
2021/01/14 09:20:59;;;;;;;3.20;2.50;;;6.50;99.90;;;;;;5027951;28;20452;-72
2021/01/14 09:23:32;;;;;;;5.83;1.90;;;6.80;99.90;;;;;;5026792;28;20923;-73
2021/01/14 09:25:59;;;;;;;7.20;2.70;;;7.10;99.90;;;;;;5033109;28;20421;-69
2021/01/14 09:28:30;;;;;;;7.07;2.20;;;7.20;99.90;;;;;;5035735;28;20429;-70
2021/01/14 09:31:03;;;;;;;7.37;2.37;;;6.90;99.90;;;;;;5021271;28;20891;-69
2021/01/14 09:33:33;;;;;;;7.20;2.83;;;6.50;99.90;;;;;;5032043;28;20438;-70
2021/01/14 09:36:01;;;;;;;6.23;3.23;;;6.20;99.90;;;;;;5030733;28;20450;-70
2021/01/14 09:38:27;;;;;;;7.80;2.93;;;6.00;99.90;;;;;;5034948;28;20480;-70
2021/01/14 09:40:57;;;;;;;4.97;2.90;;;5.30;99.90;;;;;;5021720;28;20407;-69
2021/01/14 09:43:25;;;;;;;2.67;2.47;;;5.10;99.90;;;;;;5028802;28;20982;-69
2021/01/14 09:45:52;;;;;;;8.20;3.30;;;5.00;99.90;;;;;;5032535;28;20938;-69
2021/01/14 09:48:22;;;;;;;5.03;2.60;;;4.80;99.90;;;;;;5034445;28;20430;-69
2021/01/14 09:50:49;;;;;;;8.33;3.33;;;4.90;99.90;;;;;;5033957;28;20414;-70
2021/01/14 09:53:14;;;;;;;6.67;2.60;;;4.90;99.90;;;;;;5026516;28;20506;-69
2021/01/14 09:55:41;;;;;;;8.53;2.93;;;4.60;99.90;;;;;;5034330;28;20505;-70
2021/01/14 09:58:11;;;;;;;8.63;3.60;;;4.70;99.90;;;;;;5021759;28;20418;-69
2021/01/14 10:00:37;;;;;;;11.37;3.10;;;4.40;99.90;;;;;;5024465;28;20495;-69
2021/01/14 10:03:09;;;;;;;3.63;2.27;;;4.50;99.90;;;;;;5033271;28;20450;-69
2021/01/14 10:05:37;;;;;;;9.17;2.80;;;4.50;99.90;;;;;;5035052;28;20414;-69
2021/01/14 10:08:12;;;;;;;7.43;2.60;;;4.40;99.90;;;;;;5027409;28;20422;-69
2021/01/14 10:10:39;;;;;;;10.07;2.97;;;4.40;99.90;;;;;;5034373;28;20479;-70
2021/01/14 10:13:04;;;;;;;6.90;2.60;;;4.50;99.90;;;;;;5028253;28;20428;-70
2021/01/14 10:15:30;;;;;;;5.73;2.70;;;4.50;99.90;;;;;;5035131;28;21108;-70
2021/01/14 10:17:56;;;;;;;9.50;2.27;;;4.50;99.90;;;;;;5027103;28;20524;-72
2021/01/14 10:20:22;;;;;;;7.50;3.03;;;4.50;99.90;;;;;;5026335;28;20163;-73
2021/01/14 10:22:50;;;;;;;3.00;2.57;;;4.40;99.90;;;;;;5024753;28;20215;-73
2021/01/14 10:25:16;;;;;;;5.97;2.87;;;4.50;99.90;;;;;;5026212;28;20263;-73
2021/01/14 10:28:03;;;;;;;6.70;2.37;;;4.40;99.90;;;;;;5021943;28;20418;-72
2021/01/14 10:30:30;;;;;;;8.97;3.00;;;4.40;99.90;;;;;;5024554;28;20413;-72
2021/01/14 10:33:04;;;;;;;6.00;2.27;;;4.60;99.90;;;;;;5021674;28;20454;-72
2021/01/14 10:35:32;;;;;;;7.30;3.27;;;4.60;99.90;;;;;;5025088;28;20494;-72
2021/01/14 10:38:10;;;;;;;7.27;2.70;;;4.60;99.90;;;;;;5024002;28;21146;-72
2021/01/14 10:40:51;;;;;;;7.50;4.03;;;4.50;99.90;;;;;;5022815;28;20403;-72
2021/01/14 10:43:28;;;;;;;8.50;2.60;;;4.40;99.90;;;;;;5026161;28;20454;-72
2021/01/14 10:45:54;;;;;;;5.43;3.17;;;4.30;99.90;;;;;;5028543;28;20411;-72
2021/01/14 10:48:19;;;;;;;5.00;2.83;;;4.30;99.90;;;;;;5022779;28;20497;-72
2021/01/14 10:50:55;;;;;;;3.50;2.90;;;4.40;99.90;;;;;;5032181;28;20187;-72
2021/01/14 10:53:28;;;;;;;12.70;3.70;;;4.40;99.90;;;;;;5032290;28;20205;-71
2021/01/14 10:56:18;;;;;;;5.03;2.60;;;4.50;99.90;;;;;;5031348;28;20430;-73
2021/01/14 10:58:53;;;;;;;12.53;3.13;;;4.30;99.90;;;;;;5032896;28;20414;-74
2021/01/14 11:01:20;;;;;;;20.33;3.80;;;4.20;99.90;;;;;;5032014;28;20509;-74
2021/01/14 11:03:47;;;;;;;5.17;3.10;;;4.10;99.90;;;;;;5024007;28;20455;-73
2021/01/14 11:06:30;;;;;;;14.40;3.53;;;3.90;99.90;;;;;;5021807;28;20967;-75
2021/01/14 11:09:01;;;;;;;6.50;3.07;;;3.90;99.90;;;;;;5023425;28;20406;-74
2021/01/14 11:11:27;;;;;;;12.43;3.30;;;3.90;99.90;;;;;;5025133;28;20476;-74
2021/01/14 11:13:53;;;;;;;6.33;3.00;;;3.90;99.90;;;;;;5019890;28;20443;-73
2021/01/14 11:16:20;;;;;;;6.03;3.57;;;4.00;99.90;;;;;;5022434;28;20221;-74
2021/01/14 11:18:51;;;;;;;6.03;3.40;;;4.10;99.90;;;;;;5021302;28;20206;-74
2021/01/14 11:21:18;;;;;;;6.67;3.40;;;4.10;99.90;;;;;;5023998;28;20427;-74
2021/01/14 11:23:44;;;;;;;5.63;3.37;;;4.10;99.90;;;;;;5022150;28;20460;-74
2021/01/14 11:26:20;;;;;;;6.10;3.60;;;3.80;99.90;;;;;;5023283;28;20981;-74
2021/01/14 11:28:45;;;;;;;14.80;3.70;;;3.90;99.90;;;;;;5022991;28;20171;-74
2021/01/14 11:31:13;;;;;;;9.60;3.67;;;4.00;99.90;;;;;;5023042;28;20425;-74
2021/01/14 11:33:38;;;;;;;5.80;3.47;;;4.00;99.90;;;;;;5022544;28;20970;-74
2021/01/14 11:36:12;;;;;;;6.07;3.00;;;4.20;99.90;;;;;;5021288;28;20418;-77
2021/01/14 11:38:38;;;;;;;7.57;3.80;;;4.30;99.90;;;;;;5023050;28;20624;-74
2021/01/14 11:41:04;;;;;;;7.17;3.83;;;4.30;99.90;;;;;;5022810;28;20516;-74
2021/01/14 11:43:32;;;;;;;6.80;3.83;;;4.40;99.90;;;;;;5022489;28;20544;-74
2021/01/14 11:45:57;;;;;;;6.00;3.40;;;4.50;99.90;;;;;;5019804;28;20168;-74
2021/01/14 11:48:23;;;;;;;7.27;3.00;;;4.30;99.90;;;;;;5021263;28;20422;-74
2021/01/14 11:50:49;;;;;;;4.07;2.70;;;4.30;99.90;;;;;;5022131;28;20171;-74
2021/01/14 11:53:14;;;;;;;31.50;24.27;;;4.20;99.90;;;;;;5022458;28;20633;-74
2021/01/14 11:55:40;;;;;;;10.53;5.00;;;4.10;99.90;;;;;;5021245;28;20791;-74
2021/01/14 11:58:06;;;;;;;5.73;3.40;;;4.20;99.90;;;;;;5021065;28;20179;-74
2021/01/14 12:00:31;;;;;;;4.33;2.90;;;4.10;99.90;;;;;;5024200;28;20179;-74
2021/01/14 12:02:57;;;;;;;6.80;3.90;;;4.20;99.90;;;;;;5025884;28;20199;-74
2021/01/14 12:05:23;;;;;;;6.27;3.30;;;4.20;99.90;;;;;;5025855;28;20183;-74
2021/01/14 12:07:49;;;;;;;4.70;2.97;;;4.30;99.90;;;;;;5019435;28;20533;-74
2021/01/14 12:10:15;;;;;;;6.27;3.30;;;4.20;99.90;;;;;;5022687;28;20164;-74
2021/01/14 12:12:40;;;;;;;6.30;3.17;;;4.20;99.90;;;;;;5023931;28;20179;-74
2021/01/14 12:15:07;;;;;;;7.20;4.10;;;4.30;99.90;;;;;;5020751;28;20529;-74
2021/01/14 12:17:33;;;;;;;4.50;2.90;;;4.50;99.90;;;;;;5020283;28;20227;-74
2021/01/14 12:19:59;;;;;;;10.70;3.63;;;4.50;99.90;;;;;;5021865;28;20425;-74
2021/01/14 12:22:25;;;;;;;8.33;3.37;;;4.60;99.90;;;;;;5022419;28;21009;-74
2021/01/14 12:24:50;;;;;;;6.13;3.17;;;4.60;99.90;;;;;;5023987;28;20928;-74
2021/01/14 12:27:16;;;;;;;8.33;3.20;;;4.50;99.90;;;;;;5026237;28;20413;-74
2021/01/14 12:29:42;;;;;;;6.33;2.90;;;4.70;99.90;;;;;;5025221;28;20233;-74
2021/01/14 12:32:08;;;;;;;4.67;3.70;;;4.60;99.90;;;;;;5023609;28;20545;-74
2021/01/14 12:34:34;;;;;;;8.20;4.33;;;4.50;99.90;;;;;;5026648;28;20429;-74
2021/01/14 12:36:59;;;;;;;4.80;3.30;;;4.50;99.90;;;;;;5023366;28;20172;-74
2021/01/14 12:39:25;;;;;;;10.73;4.40;;;4.60;99.90;;;;;;5027082;28;20427;-74
2021/01/14 12:41:51;;;;;;;11.90;3.73;;;4.40;99.90;;;;;;5031054;28;20451;-74
2021/01/14 12:44:17;;;;;;;6.90;4.00;;;4.40;99.90;;;;;;5034527;28;20199;-74
2021/01/14 12:46:47;;;;;;;8.23;4.40;;;4.40;99.90;;;;;;5034244;28;20191;-74
2021/01/14 12:49:16;;;;;;;3.97;2.90;;;4.30;99.90;;;;;;5034646;28;20182;-74
2021/01/14 12:51:42;;;;;;;5.63;3.40;;;4.00;99.90;;;;;;5034145;28;20860;-74
2021/01/14 12:54:08;;;;;;;3.13;2.83;;;3.90;99.90;;;;;;5034037;28;20993;-74
2021/01/14 12:56:34;;;;;;;2.70;2.50;;;4.00;99.90;;;;;;5034049;28;20476;-74
2021/01/14 12:59:00;;;;;;;6.43;2.97;;;4.00;99.90;;;;;;5033253;28;20409;-74
2021/01/14 13:01:37;;;;;;;3.33;2.80;;;4.00;99.90;;;;;;5034091;28;20440;-74
2021/01/14 13:04:07;;;;;;;5.57;2.80;;;4.00;99.90;;;;;;5034931;28;20433;-73
2021/01/14 13:06:38;;;;;;;6.90;3.10;;;4.10;99.90;;;;;;5035131;28;20968;-73
2021/01/14 13:09:09;;;;;;;5.37;3.37;;;4.10;99.90;;;;;;5034683;28;20896;-73